Time;durP1;ratioP1;P1;durP2;ratioP2;P2;SDS_P1;SDS_P2;PMS_P1;PMS_P2;Temp;Humidity;BMP_temperature;BMP_pressure;BME280_temperature;BME280_humidity;BME280_pressure;Samples;Min_cycle;Max_cycle;Signal;HPM_P1;HPM_P2
2022/08/20 00:00:37;;;;;;;3.97;1.45;;;;;;;26.29;49.94;101465.63;5008558;28;20025;-62
2022/08/20 00:03:15;;;;;;;1.17;1.00;;;;;;;26.31;49.78;101474.44;5008331;28;20033;-63
2022/08/20 00:05:45;;;;;;;1.45;1.00;;;;;;;26.29;49.92;101462.91;5008263;28;20275;-62
2022/08/20 00:08:11;;;;;;;1.45;1.05;;;;;;;26.25;49.75;101461.66;4992210;28;20026;-62
2022/08/20 00:10:40;;;;;;;1.42;0.93;;;;;;;26.08;49.84;101435.78;5025518;28;20045;-63
2022/08/20 00:13:07;;;;;;;0.98;0.80;;;;;;;26.29;49.87;101464.78;5008254;28;20029;-62
2022/08/20 00:15:34;;;;;;;1.13;0.80;;;;;;;26.29;49.98;101462.06;5007471;28;20025;-62
2022/08/20 00:18:00;;;;;;;1.45;1.08;;;;;;;25.99;49.92;101415.19;5008293;28;20467;-63
2022/08/20 00:20:30;;;;;;;1.55;1.10;;;;;;;26.26;49.92;101466.06;5025676;28;20060;-63
2022/08/20 00:22:56;;;;;;;1.23;1.02;;;;;;;26.27;50.04;101473.19;5007990;28;20067;-62
2022/08/20 00:25:21;;;;;;;1.65;1.10;;;;;;;26.26;49.71;101465.22;5007986;28;20030;-62
2022/08/20 00:27:47;;;;;;;1.40;1.10;;;;;;;26.26;50.07;101462.50;5025759;28;20037;-63
2022/08/20 00:30:13;;;;;;;2.85;1.20;;;;;;;26.27;49.77;101472.34;5025229;28;20025;-62
2022/08/20 00:32:54;;;;;;;2.08;1.08;;;;;;;26.26;49.71;101473.41;5008215;28;20105;-63
2022/08/20 00:35:23;;;;;;;1.83;0.90;;;;;;;26.26;49.71;101466.06;5008022;28;20030;-61
2022/08/20 00:37:49;;;;;;;1.23;0.90;;;;;;;26.23;50.03;101466.44;4992030;28;20022;-61
2022/08/20 00:40:18;;;;;;;1.52;1.10;;;;;;;26.25;49.87;101475.28;5007874;28;20052;-62
2022/08/20 00:42:49;;;;;;;2.13;1.50;;;;;;;26.25;49.80;101478.00;5007892;28;20036;-62
2022/08/20 00:45:15;;;;;;;1.33;0.82;;;;;;;26.25;49.70;101479.88;5024530;28;20017;-63
2022/08/20 00:47:43;;;;;;;1.10;0.90;;;;;;;26.24;49.71;101487.22;5045144;28;20037;-62
2022/08/20 00:50:16;;;;;;;1.00;0.73;;;;;;;26.24;49.70;101483.66;5044991;28;20089;-62
2022/08/20 00:52:43;;;;;;;2.17;1.25;;;;;;;26.23;49.79;101473.78;5027601;28;20025;-62
2022/08/20 00:55:09;;;;;;;1.08;0.88;;;;;;;26.23;49.94;101480.09;5026996;28;20031;-62
2022/08/20 00:57:44;;;;;;;0.90;0.75;;;;;;;26.22;49.71;101485.75;5027680;28;20025;-62
2022/08/20 01:00:17;;;;;;;1.23;0.85;;;;;;;26.22;49.76;101481.13;5026933;28;20036;-62
2022/08/20 01:02:42;;;;;;;1.20;0.70;;;;;;;26.22;49.65;101483.03;5036412;28;20044;-63
2022/08/20 01:05:09;;;;;;;1.17;0.90;;;;;;;26.21;49.64;101484.91;5020760;28;20469;-62
2022/08/20 01:07:36;;;;;;;1.38;0.95;;;;;;;26.07;49.73;101458.63;5029427;28;20030;-62
2022/08/20 01:10:15;;;;;;;0.80;0.77;;;;;;;26.05;49.70;101456.13;5008379;28;20022;-62
2022/08/20 01:12:43;;;;;;;1.25;0.90;;;;;;;26.21;49.63;101489.50;5010695;28;20029;-62
2022/08/20 01:15:13;;;;;;;1.17;1.02;;;;;;;26.21;49.89;101497.66;5010381;28;20032;-62
2022/08/20 01:17:44;;;;;;;1.42;0.90;;;;;;;26.20;49.85;101491.38;5011417;28;20025;-62
2022/08/20 01:20:17;;;;;;;1.30;0.95;;;;;;;26.20;49.72;101493.28;5013485;28;20050;-63
2022/08/20 01:25:43;;;;;;;1.20;0.90;;;;;;;26.18;49.67;101496.22;5013870;28;20060;-62
2022/08/20 01:28:09;;;;;;;1.52;0.90;;;;;;;26.19;49.66;101497.88;5029158;28;20483;-62
2022/08/20 01:30:36;;;;;;;1.65;0.95;;;;;;;26.18;49.79;101496.22;4994942;28;20167;-61
2022/08/20 01:33:02;;;;;;;1.10;1.00;;;;;;;25.97;49.69;101461.72;5028835;28;20022;-62
2022/08/20 01:35:27;;;;;;;1.67;1.10;;;;;;;25.96;49.85;101456.50;5010842;28;20046;-63
2022/08/20 01:37:53;;;;;;;0.95;0.85;;;;;;;26.16;49.75;101499.13;5048356;28;20036;-62
2022/08/20 01:40:26;;;;;;;1.58;0.80;;;;;;;26.17;49.82;101486.34;5030819;28;20025;-62
2022/08/20 01:42:52;;;;;;;1.30;0.90;;;;;;;26.00;49.78;101464.06;5014114;28;20017;-62
2022/08/20 01:45:17;;;;;;;1.27;0.95;;;;;;;26.16;49.92;101492.84;5047629;28;20025;-61
2022/08/20 01:47:43;;;;;;;1.48;0.80;;;;;;;26.14;49.80;101486.75;5030623;28;20536;-62
2022/08/20 01:50:22;;;;;;;1.88;0.80;;;;;;;26.15;49.56;101494.72;5048102;28;20092;-62
2022/08/20 01:52:56;;;;;;;1.63;0.98;;;;;;;26.16;49.80;101492.84;5014049;28;20109;-62
2022/08/20 01:55:22;;;;;;;1.15;0.85;;;;;;;26.13;49.60;101493.25;5030089;28;20029;-63
2022/08/20 01:57:47;;;;;;;1.88;1.30;;;;;;;25.97;49.83;101466.34;5048064;28;20055;-62
2022/08/20 02:00:18;;;;;;;1.23;0.90;;;;;;;26.13;49.56;101491.38;5047526;28;20083;-62
2022/08/20 02:02:43;;;;;;;1.40;0.98;;;;;;;26.13;49.71;101491.38;5014249;28;20043;-62
2022/08/20 02:05:10;;;;;;;2.40;1.08;;;;;;;26.14;49.83;101494.94;5047533;28;20061;-63
2022/08/20 02:07:36;;;;;;;1.33;0.80;;;;;;;25.93;49.74;101453.13;5048010;28;20102;-63
2022/08/20 02:10:07;;;;;;;1.05;0.95;;;;;;;26.14;49.86;101486.75;5026828;28;20017;-63
2022/08/20 02:12:34;;;;;;;1.25;0.90;;;;;;;25.95;49.51;101468.41;5010460;28;20402;-62
2022/08/20 02:14:59;;;;;;;0.75;0.75;;;;;;;26.12;49.67;101497.00;5027275;28;20022;-62
2022/08/20 02:17:25;;;;;;;1.80;1.05;;;;;;;26.13;49.81;101505.00;4994163;28;20133;-62
2022/08/20 02:19:57;;;;;;;1.38;1.00;;;;;;;25.86;49.57;101451.41;5010243;28;20029;-63
2022/08/20 02:22:26;;;;;;;1.33;0.65;;;;;;;26.12;49.76;101491.56;5010628;28;20024;-62
2022/08/20 02:24:52;;;;;;;1.85;1.00;;;;;;;26.11;49.85;101496.16;5009818;28;20036;-62
2022/08/20 02:27:20;;;;;;;2.38;0.88;;;;;;;26.11;49.79;101498.06;5010443;28;20053;-62
2022/08/20 02:29:45;;;;;;;1.30;0.80;;;;;;;26.11;49.61;101498.06;5027513;28;20060;-63
2022/08/20 02:32:11;;;;;;;1.45;0.90;;;;;;;25.89;49.84;101457.28;5027500;28;20025;-62
2022/08/20 02:34:37;;;;;;;1.85;1.30;;;;;;;26.09;49.61;101498.28;5009733;28;20022;-63
2022/08/20 02:37:04;;;;;;;2.20;0.82;;;;;;;25.93;49.88;101465.91;5027666;28;20406;-62
2022/08/20 02:39:30;;;;;;;1.50;0.98;;;;;;;26.09;49.91;101501.00;5010173;28;20030;-63
2022/08/20 02:41:55;;;;;;;1.20;0.80;;;;;;;26.08;49.68;101504.78;5009791;28;20057;-62
2022/08/20 02:44:20;;;;;;;1.00;0.90;;;;;;;26.08;49.69;101495.72;5009876;28;20065;-64
2022/08/20 02:46:48;;;;;;;0.93;0.85;;;;;;;26.09;49.49;101495.53;5009550;28;20025;-63
2022/08/20 02:49:16;;;;;;;2.08;0.90;;;;;;;25.91;49.65;101468.84;5010198;28;20030;-63
2022/08/20 02:51:41;;;;;;;1.10;0.90;;;;;;;26.08;49.69;101493.00;5009932;28;20130;-62
2022/08/20 02:54:07;;;;;;;1.63;0.93;;;;;;;26.07;49.76;101497.63;5026901;28;20046;-62
2022/08/20 02:56:32;;;;;;;1.05;0.80;;;;;;;26.06;49.69;101509.56;5009453;28;20038;-62
2022/08/20 02:58:57;;;;;;;1.67;1.30;;;;;;;26.02;49.82;101493.81;4992852;28;20124;-62
2022/08/20 03:01:23;;;;;;;1.27;0.90;;;;;;;26.06;49.66;101501.38;5027395;28;20018;-63
2022/08/20 03:03:48;;;;;;;1.35;0.82;;;;;;;26.05;49.39;101499.72;5026879;28;20026;-63
2022/08/20 03:06:14;;;;;;;1.25;0.80;;;;;;;25.88;49.48;101479.28;5026656;28;20357;-61
2022/08/20 03:08:41;;;;;;;1.77;1.10;;;;;;;26.06;49.67;101504.13;5009705;28;20089;-62
2022/08/20 03:11:06;;;;;;;2.22;0.90;;;;;;;26.05;49.61;101505.16;5038912;28;20021;-62
2022/08/20 03:13:31;;;;;;;1.58;1.05;;;;;;;25.88;49.79;101480.13;5046722;28;20030;-62
2022/08/20 03:16:00;;;;;;;1.83;1.13;;;;;;;26.05;49.38;101499.72;5046203;28;20028;-62
2022/08/20 03:18:28;;;;;;;1.17;0.90;;;;;;;26.04;49.43;101495.31;5029406;28;20044;-62
2022/08/20 03:20:54;;;;;;;1.00;0.82;;;;;;;26.04;49.45;101495.31;5029179;28;20049;-62
2022/08/20 03:23:20;;;;;;;1.98;0.85;;;;;;;26.04;49.41;101495.31;5046832;28;20052;-62
2022/08/20 03:25:46;;;;;;;1.98;1.00;;;;;;;26.03;49.57;101485.44;5046289;28;20036;-62
2022/08/20 03:28:12;;;;;;;0.80;0.70;;;;;;;26.03;49.50;101481.88;5029076;28;20092;-62
2022/08/20 03:30:38;;;;;;;1.10;0.93;;;;;;;26.03;49.45;101488.16;5046135;28;20052;-61
2022/08/20 03:33:03;;;;;;;1.50;0.80;;;;;;;26.02;49.54;101474.75;5028612;28;20030;-62
2022/08/20 03:35:30;;;;;;;1.85;1.00;;;;;;;26.02;49.65;101491.94;5028216;28;20030;-62
2022/08/20 03:37:55;;;;;;;1.30;0.95;;;;;;;25.82;49.62;101456.41;5028604;28;20029;-63
2022/08/20 03:40:30;;;;;;;1.23;0.80;;;;;;;26.02;49.68;101497.38;5046127;28;20112;-63
2022/08/20 03:42:57;;;;;;;1.35;1.08;;;;;;;25.82;49.72;101471.91;5045977;28;20077;-63
2022/08/20 03:45:24;;;;;;;2.50;1.33;;;;;;;25.81;49.60;101472.97;5044564;28;20059;-63
2022/08/20 03:47:50;;;;;;;3.58;0.80;;;;;;;26.01;49.51;101503.03;5012003;28;20032;-62
2022/08/20 03:50:17;;;;;;;2.00;1.00;;;;;;;25.84;49.52;101487.03;5028455;28;20156;-62
2022/08/20 03:52:42;;;;;;;1.85;0.95;;;;;;;25.99;49.37;101510.56;5012154;28;20135;-62
2022/08/20 03:55:09;;;;;;;1.05;0.75;;;;;;;25.99;49.54;101514.13;5028039;28;20494;-62
2022/08/20 03:57:35;;;;;;;1.48;1.10;;;;;;;25.78;49.63;101481.53;5028162;28;20032;-62
2022/08/20 04:00:03;;;;;;;1.50;0.60;;;;;;;25.98;49.50;101515.19;5027572;28;20017;-63
2022/08/20 04:02:28;;;;;;;1.30;0.77;;;;;;;25.82;49.34;101494.53;5046138;28;20025;-63
2022/08/20 04:04:54;;;;;;;2.55;1.10;;;;;;;25.85;49.58;101491.41;5027493;28;20382;-63
2022/08/20 04:07:24;;;;;;;1.30;1.10;;;;;;;25.97;49.49;101499.88;5028146;28;20029;-63
2022/08/20 04:09:51;;;;;;;0.98;0.65;;;;;;;25.97;49.53;101504.50;5026911;28;20047;-62
2022/08/20 04:12:16;;;;;;;1.17;0.93;;;;;;;25.80;49.22;101483.03;5026028;28;20026;-63
2022/08/20 04:14:41;;;;;;;1.17;0.80;;;;;;;25.96;49.42;101514.56;5025324;28;20090;-62
2022/08/20 04:17:09;;;;;;;2.58;1.20;;;;;;;25.95;49.49;101518.28;5008254;28;20415;-62
2022/08/20 04:19:35;;;;;;;4.18;1.08;;;;;;;25.96;49.43;101517.28;5008215;28;20054;-62
2022/08/20 04:22:00;;;;;;;1.15;0.73;;;;;;;25.93;49.38;101523.13;5008224;28;20033;-62
2022/08/20 04:24:26;;;;;;;1.55;1.15;;;;;;;25.92;49.52;101529.63;5025393;28;20022;-62
2022/08/20 04:26:51;;;;;;;1.30;0.80;;;;;;;25.95;49.63;101533.81;5025581;28;20029;-63
2022/08/20 04:29:17;;;;;;;2.05;0.95;;;;;;;25.93;49.59;101532.13;5025433;28;20068;-62
2022/08/20 04:31:42;;;;;;;1.10;0.95;;;;;;;25.78;49.59;101515.06;5008212;28;20018;-62
2022/08/20 04:34:07;;;;;;;1.70;1.02;;;;;;;25.92;49.45;101541.34;5025323;28;20482;-62
2022/08/20 04:36:34;;;;;;;1.88;0.90;;;;;;;25.93;49.56;101547.66;5028977;28;20048;-62
2022/08/20 04:38:59;;;;;;;1.38;0.73;;;;;;;25.76;49.21;101516.28;5017592;28;20018;-62
2022/08/20 04:41:24;;;;;;;1.60;1.15;;;;;;;25.92;49.48;101544.06;5034527;28;20090;-62
2022/08/20 04:43:52;;;;;;;1.52;1.00;;;;;;;25.72;49.38;101510.38;5015712;28;20045;-61
2022/08/20 04:46:18;;;;;;;1.87;1.03;;;;;;;25.92;49.57;101540.53;5025993;28;20041;-62
2022/08/20 04:48:43;;;;;;;1.70;1.17;;;;;;;25.92;49.26;101537.78;5026103;28;20263;-62
2022/08/20 04:51:13;;;;;;;3.00;0.95;;;;;;;25.72;49.43;101504.94;4991461;28;20033;-62
2022/08/20 04:53:38;;;;;;;1.92;1.17;;;;;;;25.74;49.73;101505.56;5008313;28;20042;-64
2022/08/20 04:56:04;;;;;;;1.52;0.93;;;;;;;25.89;49.43;101538.19;5007347;28;20549;-62
2022/08/20 04:58:33;;;;;;;1.60;0.90;;;;;;;25.90;49.65;101539.84;5025607;28;20033;-62
2022/08/20 05:01:02;;;;;;;2.08;1.23;;;;;;;25.90;49.50;101542.59;5024892;28;20026;-63
2022/08/20 05:03:27;;;;;;;1.73;1.05;;;;;;;25.81;49.51;101533.72;4990787;28;20158;-62
2022/08/20 05:05:53;;;;;;;2.35;1.10;;;;;;;25.90;49.47;101545.31;5006962;28;20030;-62
2022/08/20 05:08:21;;;;;;;1.63;0.70;;;;;;;25.89;49.35;101555.38;5023787;28;20033;-62
2022/08/20 05:10:47;;;;;;;1.92;1.15;;;;;;;25.89;49.38;101562.69;5016771;28;20030;-62
2022/08/20 05:13:12;;;;;;;1.73;0.90;;;;;;;25.73;49.36;101535.72;5044516;28;20537;-62
2022/08/20 05:15:38;;;;;;;2.38;1.00;;;;;;;25.71;49.50;101544.13;5044116;28;20037;-63
2022/08/20 05:18:06;;;;;;;1.00;0.80;;;;;;;25.69;49.62;101535.28;5045012;28;20037;-62
2022/08/20 05:20:34;;;;;;;1.67;1.10;;;;;;;25.75;48.96;101539.13;5027186;28;20049;-62
2022/08/20 05:23:01;;;;;;;1.45;0.80;;;;;;;25.86;49.19;101561.22;5044666;28;20245;-63
2022/08/20 05:25:30;;;;;;;1.60;0.90;;;;;;;25.88;49.42;101566.47;5044575;28;20112;-62
2022/08/20 05:28:08;;;;;;;1.38;1.05;;;;;;;25.88;49.55;101566.47;5044838;28;20060;-62
2022/08/20 05:30:34;;;;;;;2.67;1.00;;;;;;;25.87;49.35;101562.03;5044321;28;20021;-62
2022/08/20 05:33:02;;;;;;;5.80;1.55;;;;;;;25.87;49.47;101568.38;5010469;28;20089;-62
2022/08/20 05:35:28;;;;;;;1.77;0.73;;;;;;;25.86;49.59;101572.09;5010040;28;20026;-62
2022/08/20 05:37:53;;;;;;;1.40;0.93;;;;;;;25.87;49.51;101572.94;5044709;28;20068;-61
2022/08/20 05:40:19;;;;;;;1.30;1.02;;;;;;;25.71;49.57;101544.13;5044499;28;20052;-63
2022/08/20 05:42:44;;;;;;;1.08;0.88;;;;;;;25.84;49.37;101574.19;5026800;28;20044;-63
2022/08/20 05:45:09;;;;;;;1.42;0.90;;;;;;;25.88;49.35;101574.66;5043645;28;20022;-63
2022/08/20 05:47:38;;;;;;;2.53;0.90;;;;;;;25.86;49.48;101579.44;5026821;28;20108;-63
2022/08/20 05:50:05;;;;;;;1.30;0.82;;;;;;;25.86;49.51;101574.81;5026753;28;20022;-63
2022/08/20 05:52:30;;;;;;;2.13;1.00;;;;;;;25.87;49.44;101578.38;5026791;28;20057;-63
2022/08/20 05:54:56;;;;;;;1.88;1.20;;;;;;;25.87;49.29;101589.28;5026484;28;20022;-63
2022/08/20 05:57:21;;;;;;;1.73;1.23;;;;;;;25.87;49.43;101587.44;5026777;28;20025;-63
2022/08/20 05:59:46;;;;;;;2.60;1.00;;;;;;;25.86;49.42;101588.44;5043727;28;20382;-63
2022/08/20 06:04:56;;;;;;;2.50;1.13;;;;;;;25.71;49.44;101568.63;5044036;28;20044;-63
2022/08/20 06:07:21;;;;;;;0.90;0.70;;;;;;;25.86;49.53;101595.78;5044270;28;20021;-63
2022/08/20 06:09:47;;;;;;;2.10;1.10;;;;;;;25.86;49.09;101604.78;5028871;28;20032;-63
2022/08/20 06:12:12;;;;;;;2.95;1.02;;;;;;;25.68;49.76;101564.41;5027872;28;20021;-63
2022/08/20 06:14:38;;;;;;;3.13;1.20;;;;;;;25.86;49.27;101603.97;4993502;28;20086;-63
2022/08/20 06:17:06;;;;;;;2.15;1.05;;;;;;;25.85;49.33;101594.94;5010008;28;20038;-63
2022/08/20 06:19:32;;;;;;;1.92;0.80;;;;;;;25.84;49.16;101601.44;5010340;28;20025;-62
2022/08/20 06:21:57;;;;;;;1.40;1.00;;;;;;;25.85;49.37;101594.09;5028033;28;20443;-62
2022/08/20 06:24:23;;;;;;;1.75;1.17;;;;;;;25.81;49.29;101595.53;5027818;28;20048;-62
2022/08/20 06:26:57;;;;;;;2.22;1.10;;;;;;;25.84;49.45;101600.59;5027961;28;20076;-62
2022/08/20 06:29:23;;;;;;;1.90;1.00;;;;;;;25.82;49.44;101600.78;5027116;28;20498;-62
2022/08/20 06:31:48;;;;;;;1.90;1.05;;;;;;;25.68;49.10;101579.91;5027617;28;20196;-62
2022/08/20 06:34:13;;;;;;;1.85;1.08;;;;;;;25.83;49.40;101615.28;5027436;28;20021;-62
2022/08/20 06:36:39;;;;;;;1.35;1.05;;;;;;;25.79;49.21;101592.19;5027717;28;20028;-63
2022/08/20 06:39:04;;;;;;;3.22;1.15;;;;;;;25.82;49.40;101610.84;5027796;28;20041;-63
2022/08/20 06:41:29;;;;;;;1.92;1.50;;;;;;;25.79;49.29;101609.38;5027886;28;20034;-63
2022/08/20 06:43:55;;;;;;;1.85;0.88;;;;;;;25.66;49.70;101582.84;5009151;28;20026;-62
2022/08/20 06:46:22;;;;;;;2.13;1.40;;;;;;;25.82;49.35;101608.13;5009351;28;20029;-63
2022/08/20 06:48:47;;;;;;;2.88;1.45;;;;;;;25.82;49.34;101602.66;5027671;28;20117;-63
2022/08/20 06:51:13;;;;;;;3.08;1.20;;;;;;;25.81;49.08;101612.72;5027157;28;20476;-63
2022/08/20 06:53:38;;;;;;;1.77;1.08;;;;;;;25.66;49.08;101582.00;5027108;28;20038;-63
2022/08/20 06:56:03;;;;;;;1.30;0.73;;;;;;;25.64;49.29;101584.06;5026962;28;20038;-63
2022/08/20 06:58:31;;;;;;;2.30;1.00;;;;;;;25.66;49.30;101588.28;5027196;28;20053;-63
2022/08/20 07:00:56;;;;;;;2.17;0.80;;;;;;;25.84;49.13;101614.22;5008716;28;20029;-62
2022/08/20 07:03:21;;;;;;;1.73;1.10;;;;;;;25.63;49.15;101576.94;5009317;28;20022;-62
2022/08/20 07:05:47;;;;;;;1.60;1.00;;;;;;;25.72;48.84;101605.72;5026491;28;20029;-63
2022/08/20 07:08:17;;;;;;;2.10;0.80;;;;;;;25.82;49.23;101617.13;5026986;28;20041;-62
2022/08/20 07:10:42;;;;;;;2.15;1.05;;;;;;;25.82;48.92;101624.47;5035711;28;20026;-62
2022/08/20 07:13:10;;;;;;;1.88;0.90;;;;;;;25.83;49.08;101620.72;5028660;28;20023;-63
2022/08/20 07:15:36;;;;;;;2.00;0.90;;;;;;;25.65;49.02;101599.34;5045835;28;20041;-63
2022/08/20 07:18:03;;;;;;;2.40;1.10;;;;;;;25.82;49.13;101627.19;5028798;28;20033;-63
2022/08/20 07:20:30;;;;;;;2.08;0.90;;;;;;;25.83;49.13;101620.72;5028766;28;20021;-63
2022/08/20 07:22:56;;;;;;;2.17;1.00;;;;;;;25.83;48.81;101627.00;5046753;28;20021;-63
2022/08/20 07:25:22;;;;;;;2.08;0.90;;;;;;;25.83;48.93;101621.56;5028535;28;20032;-63
2022/08/20 07:27:48;;;;;;;1.17;0.80;;;;;;;25.78;49.08;101617.72;5046544;28;20022;-63
2022/08/20 07:33:01;;;;;;;2.88;1.65;;;;;;;25.84;48.82;101622.41;5046512;28;20117;-63
2022/08/20 07:35:27;;;;;;;2.53;0.93;;;;;;;25.84;48.96;101627.84;5028300;28;20096;-62
2022/08/20 07:37:53;;;;;;;2.08;1.17;;;;;;;25.67;48.81;101609.03;5046221;28;20048;-62
2022/08/20 07:40:27;;;;;;;2.45;1.13;;;;;;;25.84;48.64;101634.13;5012021;28;20025;-62
2022/08/20 07:42:54;;;;;;;2.28;0.95;;;;;;;25.83;48.54;101639.78;5011655;28;20052;-63
2022/08/20 07:45:20;;;;;;;2.80;0.82;;;;;;;25.83;48.68;101635.19;5011355;28;20032;-64
2022/08/20 07:47:46;;;;;;;1.98;0.77;;;;;;;25.83;48.79;101637.06;5028376;28;20021;-62
2022/08/20 07:50:14;;;;;;;1.73;1.08;;;;;;;25.81;48.60;101633.69;5028273;28;20017;-63
2022/08/20 07:52:39;;;;;;;1.70;0.90;;;;;;;25.67;48.89;101617.19;5046026;28;20094;-62
2022/08/20 07:55:10;;;;;;;1.63;1.00;;;;;;;25.82;48.68;101646.25;5027875;28;20013;-62
2022/08/20 07:57:37;;;;;;;2.45;0.98;;;;;;;25.81;48.58;101637.25;5028287;28;20025;-63
2022/08/20 08:00:08;;;;;;;1.85;1.10;;;;;;;25.81;48.54;101642.69;5027786;28;20017;-63
2022/08/20 08:02:35;;;;;;;3.22;1.20;;;;;;;25.81;48.55;101639.97;5011676;28;20269;-63
2022/08/20 08:05:01;;;;;;;2.40;1.00;;;;;;;25.81;48.67;101648.13;5045134;28;20029;-63
2022/08/20 08:07:27;;;;;;;1.75;1.02;;;;;;;25.61;48.30;101609.78;5027826;28;20029;-63
2022/08/20 08:09:52;;;;;;;2.78;1.05;;;;;;;25.65;48.39;101618.41;5043542;28;20029;-63
2022/08/20 08:12:18;;;;;;;2.08;0.93;;;;;;;25.81;48.46;101641.84;5007982;28;20037;-62
2022/08/20 08:14:44;;;;;;;2.60;1.10;;;;;;;25.63;48.35;101609.63;5025364;28;20021;-63
2022/08/20 08:17:11;;;;;;;1.60;0.77;;;;;;;25.61;48.22;101609.78;5008044;28;20146;-62
2022/08/20 08:19:39;;;;;;;1.77;1.10;;;;;;;25.61;48.24;101608.97;5008015;28;20029;-63
2022/08/20 08:22:06;;;;;;;2.75;1.15;;;;;;;25.80;48.16;101641.00;5008068;28;20093;-63
2022/08/20 08:24:31;;;;;;;3.33;1.55;;;;;;;25.79;48.05;101644.78;5025374;28;20026;-63
2022/08/20 08:26:57;;;;;;;1.90;1.00;;;;;;;25.60;48.07;101616.28;5025107;28;20029;-63
2022/08/20 08:29:22;;;;;;;3.30;1.10;;;;;;;25.80;47.94;101645.63;5007461;28;20036;-63
2022/08/20 08:31:47;;;;;;;2.35;1.02;;;;;;;25.50;48.01;101596.72;5025083;28;20021;-63
2022/08/20 08:34:12;;;;;;;2.92;1.10;;;;;;;25.62;47.83;101622.41;5025490;28;20045;-63
2022/08/20 08:36:38;;;;;;;3.50;1.48;;;;;;;25.81;48.06;101648.13;5025202;28;20026;-63
2022/08/20 08:39:04;;;;;;;2.08;1.10;;;;;;;25.64;47.91;101620.31;5007897;28;20029;-62
2022/08/20 08:41:30;;;;;;;2.63;0.90;;;;;;;25.82;47.87;101644.38;5007413;28;20030;-62
2022/08/20 08:44:38;;;;;;;3.00;1.30;;;;;;;25.84;47.75;101647.75;5025076;28;20032;-63
2022/08/20 08:47:17;;;;;;;2.72;0.90;;;;;;;25.85;47.69;101643.97;5024750;28;20030;-63
2022/08/20 08:49:43;;;;;;;1.83;1.00;;;;;;;25.57;47.55;101607.66;5007996;28;20038;-63
2022/08/20 08:52:21;;;;;;;1.90;1.00;;;;;;;25.88;47.42;101659.94;5007486;28;20040;-62
2022/08/20 08:54:51;;;;;;;2.35;1.05;;;;;;;25.89;47.39;101661.63;5007175;28;20042;-62
2022/08/20 08:57:17;;;;;;;2.65;1.17;;;;;;;25.91;47.29;101661.41;4990979;28;20079;-62
2022/08/20 08:59:44;;;;;;;3.30;1.30;;;;;;;25.92;47.25;101663.97;5007184;28;20032;-62
2022/08/20 09:02:17;;;;;;;2.03;0.80;;;;;;;25.94;47.09;101663.75;5007585;28;20025;-63
2022/08/20 09:04:43;;;;;;;2.92;1.00;;;;;;;25.95;47.18;101675.50;5024738;28;20046;-62
2022/08/20 09:07:13;;;;;;;3.15;1.30;;;;;;;25.78;46.83;101642.25;5007340;28;20364;-62
2022/08/20 09:09:42;;;;;;;3.45;1.20;;;;;;;25.95;46.88;101667.31;5007296;28;20148;-63
2022/08/20 09:12:12;;;;;;;2.25;0.90;;;;;;;25.97;46.78;101665.25;5026887;28;20026;-62
2022/08/20 09:14:37;;;;;;;2.20;0.85;;;;;;;25.81;46.87;101642.69;5026602;28;20022;-61
2022/08/20 09:17:03;;;;;;;2.53;1.08;;;;;;;25.81;46.61;101642.69;5010367;28;20027;-63
2022/08/20 09:19:29;;;;;;;2.17;0.80;;;;;;;26.00;46.93;101665.72;5027519;28;20036;-62
2022/08/20 09:21:54;;;;;;;1.25;0.70;;;;;;;26.03;46.74;101672.63;5044737;28;20021;-63
2022/08/20 09:24:19;;;;;;;2.92;1.17;;;;;;;26.02;46.87;101671.78;5026841;28;20029;-63
2022/08/20 09:26:45;;;;;;;2.65;0.98;;;;;;;26.04;46.81;101680.63;5044216;28;20033;-63
2022/08/20 09:29:10;;;;;;;3.50;0.90;;;;;;;26.04;46.80;101677.91;5010609;28;20048;-62
2022/08/20 09:31:36;;;;;;;2.90;1.35;;;;;;;26.06;46.69;101681.25;5026650;28;20083;-63
2022/08/20 09:34:01;;;;;;;2.67;1.10;;;;;;;25.90;46.60;101657.00;5044281;28;20025;-63
2022/08/20 09:36:26;;;;;;;2.35;0.80;;;;;;;26.07;47.06;101680.19;5009917;28;20049;-63
2022/08/20 09:38:52;;;;;;;3.35;1.20;;;;;;;26.09;47.16;101677.31;5026849;28;20025;-63
2022/08/20 09:41:17;;;;;;;2.85;1.20;;;;;;;26.10;47.33;101677.09;5026724;28;20025;-61
2022/08/20 09:43:43;;;;;;;3.33;1.27;;;;;;;26.10;47.27;101678.97;5030479;28;20132;-63
2022/08/20 09:46:08;;;;;;;1.90;0.80;;;;;;;26.12;47.45;101691.38;5047361;28;20025;-63
2022/08/20 09:48:33;;;;;;;2.88;1.25;;;;;;;26.14;47.31;101678.38;5048420;28;20033;-63
2022/08/20 09:50:59;;;;;;;2.67;1.00;;;;;;;26.14;47.40;101672.09;5048022;28;20549;-61
2022/08/20 09:53:24;;;;;;;2.63;0.98;;;;;;;26.16;47.27;101673.56;5030416;28;20041;-62
2022/08/20 09:55:54;;;;;;;5.18;2.05;;;;;;;26.00;47.15;101649.34;5030010;28;20052;-63
2022/08/20 09:58:44;;;;;;;4.05;1.17;;;;;;;26.21;47.28;101674.84;5030563;28;20071;-63
2022/08/20 10:01:13;;;;;;;2.53;0.90;;;;;;;26.21;47.35;101675.72;5047406;28;20483;-63
2022/08/20 10:03:40;;;;;;;2.00;1.05;;;;;;;26.08;47.18;101648.34;5047604;28;20479;-61
2022/08/20 10:06:05;;;;;;;2.05;1.33;;;;;;;26.24;47.06;101675.28;5029582;28;20037;-63
2022/08/20 10:08:30;;;;;;;2.63;1.23;;;;;;;26.25;47.18;101670.69;5047942;28;20485;-62
2022/08/20 10:10:56;;;;;;;2.00;0.93;;;;;;;26.06;47.03;101644.97;5019153;28;20026;-62
2022/08/20 10:13:21;;;;;;;1.65;0.80;;;;;;;26.25;47.01;101678.84;5027765;28;20510;-62
2022/08/20 10:15:46;;;;;;;3.50;0.90;;;;;;;26.26;47.14;101675.13;5027219;28;20026;-62
2022/08/20 10:18:12;;;;;;;1.52;0.73;;;;;;;26.25;46.91;101673.41;5010393;28;20022;-62
2022/08/20 10:20:37;;;;;;;3.15;0.75;;;;;;;26.25;47.23;101681.59;5027880;28;20037;-63
2022/08/20 10:23:03;;;;;;;2.58;1.20;;;;;;;26.24;47.27;101686.19;5010422;28;20024;-61
2022/08/20 10:25:28;;;;;;;2.38;0.90;;;;;;;26.23;46.92;101681.81;5027497;28;20037;-62
2022/08/20 10:27:55;;;;;;;2.83;0.80;;;;;;;26.22;47.20;101685.56;5027621;28;20025;-62
2022/08/20 10:30:20;;;;;;;3.65;1.10;;;;;;;26.21;47.13;101678.44;5009727;28;20029;-62
2022/08/20 10:32:46;;;;;;;2.47;1.08;;;;;;;26.22;46.98;101682.00;5027702;28;20033;-62
2022/08/20 10:35:11;;;;;;;2.85;1.17;;;;;;;26.22;47.07;101674.66;5009875;28;20032;-62
2022/08/20 10:37:36;;;;;;;3.25;1.00;;;;;;;26.20;47.07;101676.72;5009823;28;20045;-62
2022/08/20 10:40:02;;;;;;;2.53;0.88;;;;;;;26.06;46.96;101643.09;5027610;28;20102;-62
2022/08/20 10:42:28;;;;;;;2.80;0.95;;;;;;;26.25;47.14;101670.69;5027076;28;20025;-62
2022/08/20 10:44:53;;;;;;;2.47;0.60;;;;;;;26.25;46.88;101666.09;5026843;28;20252;-62
2022/08/20 10:47:21;;;;;;;1.92;0.80;;;;;;;26.26;46.88;101672.41;5009492;28;20022;-62
2022/08/20 10:49:49;;;;;;;2.33;0.90;;;;;;;26.26;47.16;101678.69;5027345;28;20037;-61
2022/08/20 10:52:14;;;;;;;3.35;1.00;;;;;;;26.13;46.89;101659.50;5009975;28;20038;-64
2022/08/20 10:54:41;;;;;;;2.08;0.98;;;;;;;26.26;47.04;101659.59;5009275;28;20042;-62
2022/08/20 10:57:28;;;;;;;1.73;0.95;;;;;;;26.09;47.19;101650.03;5009300;28;20251;-62
2022/08/20 10:59:55;;;;;;;3.10;1.30;;;;;;;26.25;46.97;101678.84;5009627;28;20038;-62
2022/08/20 11:02:22;;;;;;;2.80;0.93;;;;;;;26.26;46.79;101680.56;5010540;28;20034;-62
2022/08/20 11:04:48;;;;;;;3.42;0.90;;;;;;;26.25;47.01;101676.13;5011748;28;20060;-63
2022/08/20 11:07:18;;;;;;;2.22;0.70;;;;;;;26.24;46.71;101671.72;5009302;28;20022;-62
2022/08/20 11:09:45;;;;;;;2.78;1.00;;;;;;;26.21;46.83;101678.44;5010388;28;20018;-62
2022/08/20 11:12:11;;;;;;;3.00;0.83;;;;;;;26.24;47.00;101671.72;5046455;28;20056;-62
2022/08/20 11:14:37;;;;;;;2.30;0.60;;;;;;;26.24;46.91;101672.56;5028726;28;20030;-62
2022/08/20 11:17:02;;;;;;;2.00;0.75;;;;;;;26.07;46.99;101646.66;5028804;28;20025;-64
2022/08/20 11:19:28;;;;;;;2.50;0.85;;;;;;;26.27;47.01;101682.25;5012817;28;20553;-63
2022/08/20 11:21:53;;;;;;;3.03;1.00;;;;;;;26.11;46.85;101651.50;5028501;28;20120;-63
2022/08/20 11:24:19;;;;;;;2.58;0.90;;;;;;;26.28;46.68;101684.75;5028703;28;20032;-62
2022/08/20 11:26:45;;;;;;;2.28;0.85;;;;;;;26.28;46.79;101682.03;5045928;28;20032;-62
2022/08/20 11:29:11;;;;;;;2.72;0.90;;;;;;;26.26;47.07;101675.97;5028711;28;20036;-61
2022/08/20 11:31:36;;;;;;;2.67;0.60;;;;;;;26.28;46.91;101683.91;5012132;28;20433;-62